sensor_id;sensor_type;location;lat;lon;timestamp;P1;durP1;ratioP1;P2;durP2;ratioP2
15412;SDS011;7805;49.554;7.632;2023-04-25T00:00:35;6.37;;;5.80;;
15412;SDS011;7805;49.554;7.632;2023-04-25T00:03:00;6.20;;;5.67;;
15412;SDS011;7805;49.554;7.632;2023-04-25T00:05:26;6.23;;;5.63;;
15412;SDS011;7805;49.554;7.632;2023-04-25T00:07:52;6.67;;;6.00;;
15412;SDS011;7805;49.554;7.632;2023-04-25T00:10:19;6.67;;;5.97;;
15412;SDS011;7805;49.554;7.632;2023-04-25T00:12:45;7.80;;;6.63;;
15412;SDS011;7805;49.554;7.632;2023-04-25T00:15:11;7.63;;;6.77;;
15412;SDS011;7805;49.554;7.632;2023-04-25T00:17:37;7.37;;;6.67;;
15412;SDS011;7805;49.554;7.632;2023-04-25T00:20:06;7.20;;;6.50;;
15412;SDS011;7805;49.554;7.632;2023-04-25T00:22:35;8.30;;;6.73;;
15412;SDS011;7805;49.554;7.632;2023-04-25T00:25:03;6.97;;;6.27;;
15412;SDS011;7805;49.554;7.632;2023-04-25T00:27:31;6.97;;;6.27;;
15412;SDS011;7805;49.554;7.632;2023-04-25T00:29:57;7.93;;;6.33;;
15412;SDS011;7805;49.554;7.632;2023-04-25T00:32:23;7.37;;;6.67;;
15412;SDS011;7805;49.554;7.632;2023-04-25T00:34:48;8.47;;;7.67;;
15412;SDS011;7805;49.554;7.632;2023-04-25T00:37:14;7.20;;;6.37;;
15412;SDS011;7805;49.554;7.632;2023-04-25T00:39:40;7.53;;;6.73;;
15412;SDS011;7805;49.554;7.632;2023-04-25T00:42:05;7.50;;;6.67;;
15412;SDS011;7805;49.554;7.632;2023-04-25T00:44:31;7.17;;;6.53;;
15412;SDS011;7805;49.554;7.632;2023-04-25T00:46:58;9.33;;;6.90;;
15412;SDS011;7805;49.554;7.632;2023-04-25T00:49:25;8.03;;;6.60;;
15412;SDS011;7805;49.554;7.632;2023-04-25T00:51:50;8.90;;;7.77;;
15412;SDS011;7805;49.554;7.632;2023-04-25T00:54:16;8.37;;;6.93;;
15412;SDS011;7805;49.554;7.632;2023-04-25T00:56:42;7.33;;;6.63;;
15412;SDS011;7805;49.554;7.632;2023-04-25T00:59:10;8.23;;;7.43;;
15412;SDS011;7805;49.554;7.632;2023-04-25T01:01:36;7.50;;;6.80;;
15412;SDS011;7805;49.554;7.632;2023-04-25T01:04:03;8.93;;;8.03;;
15412;SDS011;7805;49.554;7.632;2023-04-25T01:06:29;8.87;;;7.97;;
15412;SDS011;7805;49.554;7.632;2023-04-25T01:08:55;8.73;;;7.93;;
15412;SDS011;7805;49.554;7.632;2023-04-25T01:11:21;10.30;;;8.90;;
15412;SDS011;7805;49.554;7.632;2023-04-25T01:13:46;9.93;;;8.60;;
15412;SDS011;7805;49.554;7.632;2023-04-25T01:16:12;11.73;;;8.80;;
15412;SDS011;7805;49.554;7.632;2023-04-25T01:18:38;11.20;;;8.53;;
15412;SDS011;7805;49.554;7.632;2023-04-25T01:21:09;10.50;;;9.40;;
15412;SDS011;7805;49.554;7.632;2023-04-25T01:23:36;9.67;;;8.47;;
15412;SDS011;7805;49.554;7.632;2023-04-25T01:26:06;10.33;;;9.17;;
15412;SDS011;7805;49.554;7.632;2023-04-25T01:28:36;10.23;;;8.67;;
15412;SDS011;7805;49.554;7.632;2023-04-25T01:31:06;8.97;;;8.07;;
15412;SDS011;7805;49.554;7.632;2023-04-25T01:33:31;8.10;;;7.27;;
15412;SDS011;7805;49.554;7.632;2023-04-25T01:35:57;8.00;;;7.20;;
15412;SDS011;7805;49.554;7.632;2023-04-25T01:38:23;8.87;;;8.07;;
15412;SDS011;7805;49.554;7.632;2023-04-25T01:40:49;9.93;;;8.37;;
15412;SDS011;7805;49.554;7.632;2023-04-25T01:43:16;8.50;;;7.70;;
15412;SDS011;7805;49.554;7.632;2023-04-25T01:45:42;9.20;;;7.00;;
15412;SDS011;7805;49.554;7.632;2023-04-25T01:48:11;8.70;;;7.77;;
15412;SDS011;7805;49.554;7.632;2023-04-25T01:50:39;7.63;;;6.93;;
15412;SDS011;7805;49.554;7.632;2023-04-25T01:53:05;7.00;;;6.30;;
15412;SDS011;7805;49.554;7.632;2023-04-25T01:55:31;8.43;;;6.90;;
15412;SDS011;7805;49.554;7.632;2023-04-25T01:57:57;7.97;;;6.80;;
15412;SDS011;7805;49.554;7.632;2023-04-25T02:00:23;8.40;;;7.60;;
15412;SDS011;7805;49.554;7.632;2023-04-25T02:02:49;8.13;;;7.33;;
15412;SDS011;7805;49.554;7.632;2023-04-25T02:05:16;7.70;;;7.00;;
15412;SDS011;7805;49.554;7.632;2023-04-25T02:07:41;8.47;;;7.57;;
15412;SDS011;7805;49.554;7.632;2023-04-25T02:10:07;8.50;;;7.57;;
15412;SDS011;7805;49.554;7.632;2023-04-25T02:12:34;8.37;;;7.10;;
15412;SDS011;7805;49.554;7.632;2023-04-25T02:15:00;7.40;;;6.70;;
15412;SDS011;7805;49.554;7.632;2023-04-25T02:17:26;7.27;;;6.57;;
15412;SDS011;7805;49.554;7.632;2023-04-25T02:19:52;7.13;;;6.43;;
15412;SDS011;7805;49.554;7.632;2023-04-25T02:22:17;7.60;;;6.90;;
15412;SDS011;7805;49.554;7.632;2023-04-25T02:24:43;6.73;;;6.03;;
15412;SDS011;7805;49.554;7.632;2023-04-25T02:27:08;8.17;;;6.53;;
15412;SDS011;7805;49.554;7.632;2023-04-25T02:29:34;7.50;;;6.40;;
15412;SDS011;7805;49.554;7.632;2023-04-25T02:31:59;7.77;;;6.93;;
15412;SDS011;7805;49.554;7.632;2023-04-25T02:34:25;7.80;;;7.00;;
15412;SDS011;7805;49.554;7.632;2023-04-25T02:36:51;8.27;;;6.70;;
15412;SDS011;7805;49.554;7.632;2023-04-25T02:39:16;8.80;;;6.83;;
15412;SDS011;7805;49.554;7.632;2023-04-25T02:41:42;7.13;;;6.47;;
15412;SDS011;7805;49.554;7.632;2023-04-25T02:44:08;8.43;;;6.80;;
15412;SDS011;7805;49.554;7.632;2023-04-25T02:46:33;7.17;;;6.07;;
15412;SDS011;7805;49.554;7.632;2023-04-25T02:48:59;7.93;;;6.47;;
15412;SDS011;7805;49.554;7.632;2023-04-25T02:51:24;7.10;;;5.87;;
15412;SDS011;7805;49.554;7.632;2023-04-25T02:53:51;7.30;;;6.60;;
15412;SDS011;7805;49.554;7.632;2023-04-25T02:56:16;5.47;;;4.93;;
15412;SDS011;7805;49.554;7.632;2023-04-25T02:58:42;6.67;;;5.90;;
15412;SDS011;7805;49.554;7.632;2023-04-25T03:01:07;6.33;;;5.47;;
15412;SDS011;7805;49.554;7.632;2023-04-25T03:03:33;7.70;;;6.53;;
15412;SDS011;7805;49.554;7.632;2023-04-25T03:05:59;7.17;;;6.33;;
15412;SDS011;7805;49.554;7.632;2023-04-25T03:08:24;7.60;;;6.90;;
15412;SDS011;7805;49.554;7.632;2023-04-25T03:10:51;8.37;;;7.57;;
15412;SDS011;7805;49.554;7.632;2023-04-25T03:13:20;7.60;;;6.80;;
15412;SDS011;7805;49.554;7.632;2023-04-25T03:15:45;7.50;;;6.80;;
15412;SDS011;7805;49.554;7.632;2023-04-25T03:18:11;7.50;;;6.80;;
15412;SDS011;7805;49.554;7.632;2023-04-25T03:20:37;7.70;;;6.90;;
15412;SDS011;7805;49.554;7.632;2023-04-25T03:23:04;7.60;;;6.80;;
15412;SDS011;7805;49.554;7.632;2023-04-25T03:25:30;8.80;;;6.93;;
15412;SDS011;7805;49.554;7.632;2023-04-25T03:27:56;7.10;;;6.40;;
15412;SDS011;7805;49.554;7.632;2023-04-25T03:30:21;7.43;;;6.70;;
15412;SDS011;7805;49.554;7.632;2023-04-25T03:32:47;7.47;;;6.77;;
15412;SDS011;7805;49.554;7.632;2023-04-25T03:35:13;8.93;;;7.30;;
15412;SDS011;7805;49.554;7.632;2023-04-25T03:37:38;7.33;;;6.47;;
15412;SDS011;7805;49.554;7.632;2023-04-25T03:40:05;9.73;;;7.17;;
15412;SDS011;7805;49.554;7.632;2023-04-25T03:42:31;8.73;;;6.63;;
15412;SDS011;7805;49.554;7.632;2023-04-25T03:44:57;9.00;;;7.60;;
15412;SDS011;7805;49.554;7.632;2023-04-25T03:47:22;7.20;;;6.50;;
15412;SDS011;7805;49.554;7.632;2023-04-25T03:49:48;7.60;;;6.80;;
15412;SDS011;7805;49.554;7.632;2023-04-25T03:52:16;8.10;;;7.30;;
15412;SDS011;7805;49.554;7.632;2023-04-25T03:54:43;7.67;;;6.97;;
15412;SDS011;7805;49.554;7.632;2023-04-25T03:57:08;8.60;;;7.80;;
15412;SDS011;7805;49.554;7.632;2023-04-25T03:59:35;8.13;;;6.97;;
15412;SDS011;7805;49.554;7.632;2023-04-25T04:02:00;8.37;;;6.97;;
15412;SDS011;7805;49.554;7.632;2023-04-25T04:04:26;9.10;;;7.53;;
15412;SDS011;7805;49.554;7.632;2023-04-25T04:06:51;8.50;;;7.60;;
15412;SDS011;7805;49.554;7.632;2023-04-25T04:09:17;9.77;;;7.60;;
15412;SDS011;7805;49.554;7.632;2023-04-25T04:11:44;8.37;;;7.47;;
15412;SDS011;7805;49.554;7.632;2023-04-25T04:14:09;8.73;;;7.83;;
15412;SDS011;7805;49.554;7.632;2023-04-25T04:16:35;9.90;;;8.10;;
15412;SDS011;7805;49.554;7.632;2023-04-25T04:19:01;8.50;;;7.70;;
15412;SDS011;7805;49.554;7.632;2023-04-25T04:21:27;8.93;;;7.47;;
15412;SDS011;7805;49.554;7.632;2023-04-25T04:23:52;10.27;;;8.87;;
15412;SDS011;7805;49.554;7.632;2023-04-25T04:26:19;10.50;;;8.43;;
15412;SDS011;7805;49.554;7.632;2023-04-25T04:28:48;8.77;;;7.67;;
15412;SDS011;7805;49.554;7.632;2023-04-25T04:31:15;8.10;;;7.30;;
15412;SDS011;7805;49.554;7.632;2023-04-25T04:33:43;8.53;;;7.60;;
15412;SDS011;7805;49.554;7.632;2023-04-25T04:36:09;10.33;;;8.73;;
15412;SDS011;7805;49.554;7.632;2023-04-25T04:38:35;9.33;;;8.17;;
15412;SDS011;7805;49.554;7.632;2023-04-25T04:41:01;9.27;;;7.60;;
15412;SDS011;7805;49.554;7.632;2023-04-25T04:43:27;9.50;;;8.27;;
15412;SDS011;7805;49.554;7.632;2023-04-25T04:45:53;8.03;;;7.23;;
15412;SDS011;7805;49.554;7.632;2023-04-25T04:48:21;9.83;;;7.87;;
15412;SDS011;7805;49.554;7.632;2023-04-25T04:50:46;8.17;;;7.37;;
15412;SDS011;7805;49.554;7.632;2023-04-25T04:53:12;7.87;;;7.17;;
15412;SDS011;7805;49.554;7.632;2023-04-25T04:55:38;9.30;;;8.23;;
15412;SDS011;7805;49.554;7.632;2023-04-25T04:58:06;11.20;;;8.40;;
15412;SDS011;7805;49.554;7.632;2023-04-25T05:00:32;8.60;;;7.27;;
15412;SDS011;7805;49.554;7.632;2023-04-25T05:02:58;9.53;;;7.90;;
15412;SDS011;7805;49.554;7.632;2023-04-25T05:05:24;8.63;;;7.73;;
15412;SDS011;7805;49.554;7.632;2023-04-25T05:07:49;8.73;;;7.77;;
15412;SDS011;7805;49.554;7.632;2023-04-25T05:10:16;8.03;;;7.23;;
15412;SDS011;7805;49.554;7.632;2023-04-25T05:12:42;9.67;;;8.57;;
15412;SDS011;7805;49.554;7.632;2023-04-25T05:15:07;7.57;;;6.87;;
15412;SDS011;7805;49.554;7.632;2023-04-25T05:17:33;9.90;;;7.60;;
15412;SDS011;7805;49.554;7.632;2023-04-25T05:19:59;9.73;;;7.43;;
15412;SDS011;7805;49.554;7.632;2023-04-25T05:22:25;9.33;;;7.93;;
15412;SDS011;7805;49.554;7.632;2023-04-25T05:24:51;12.67;;;8.57;;
15412;SDS011;7805;49.554;7.632;2023-04-25T05:27:17;9.23;;;8.33;;
15412;SDS011;7805;49.554;7.632;2023-04-25T05:29:43;11.13;;;9.07;;
15412;SDS011;7805;49.554;7.632;2023-04-25T05:32:09;9.57;;;8.40;;
15412;SDS011;7805;49.554;7.632;2023-04-25T05:34:35;9.60;;;8.63;;
15412;SDS011;7805;49.554;7.632;2023-04-25T05:37:01;10.83;;;8.87;;
15412;SDS011;7805;49.554;7.632;2023-04-25T05:39:27;9.97;;;8.87;;
15412;SDS011;7805;49.554;7.632;2023-04-25T05:41:53;10.80;;;9.67;;
15412;SDS011;7805;49.554;7.632;2023-04-25T05:44:18;9.43;;;8.43;;
15412;SDS011;7805;49.554;7.632;2023-04-25T05:46:44;8.90;;;8.00;;
15412;SDS011;7805;49.554;7.632;2023-04-25T05:49:09;9.40;;;8.40;;
15412;SDS011;7805;49.554;7.632;2023-04-25T05:51:35;10.87;;;9.77;;
15412;SDS011;7805;49.554;7.632;2023-04-25T05:54:01;9.10;;;8.20;;
15412;SDS011;7805;49.554;7.632;2023-04-25T05:56:26;8.77;;;7.83;;
15412;SDS011;7805;49.554;7.632;2023-04-25T05:58:52;9.70;;;8.70;;
15412;SDS011;7805;49.554;7.632;2023-04-25T06:01:18;10.17;;;8.30;;
15412;SDS011;7805;49.554;7.632;2023-04-25T06:03:43;9.50;;;8.50;;
15412;SDS011;7805;49.554;7.632;2023-04-25T06:06:09;10.93;;;9.43;;
15412;SDS011;7805;49.554;7.632;2023-04-25T06:08:36;11.20;;;9.67;;
15412;SDS011;7805;49.554;7.632;2023-04-25T06:11:02;11.23;;;9.77;;
15412;SDS011;7805;49.554;7.632;2023-04-25T06:13:28;9.33;;;8.33;;
15412;SDS011;7805;49.554;7.632;2023-04-25T06:15:53;13.80;;;9.77;;
15412;SDS011;7805;49.554;7.632;2023-04-25T06:18:19;11.20;;;9.20;;
15412;SDS011;7805;49.554;7.632;2023-04-25T06:20:45;10.07;;;8.97;;
15412;SDS011;7805;49.554;7.632;2023-04-25T06:23:10;11.13;;;9.93;;
15412;SDS011;7805;49.554;7.632;2023-04-25T06:25:36;12.30;;;9.37;;
15412;SDS011;7805;49.554;7.632;2023-04-25T06:28:01;10.53;;;9.23;;
15412;SDS011;7805;49.554;7.632;2023-04-25T06:30:27;11.27;;;10.07;;
15412;SDS011;7805;49.554;7.632;2023-04-25T06:32:53;11.43;;;10.23;;
15412;SDS011;7805;49.554;7.632;2023-04-25T06:35:18;11.30;;;10.20;;
15412;SDS011;7805;49.554;7.632;2023-04-25T06:37:44;10.97;;;9.87;;
15412;SDS011;7805;49.554;7.632;2023-04-25T06:40:10;11.03;;;9.00;;
15412;SDS011;7805;49.554;7.632;2023-04-25T06:42:36;10.10;;;9.07;;
15412;SDS011;7805;49.554;7.632;2023-04-25T06:45:01;12.33;;;11.03;;
15412;SDS011;7805;49.554;7.632;2023-04-25T06:47:27;11.73;;;10.40;;
15412;SDS011;7805;49.554;7.632;2023-04-25T06:49:54;11.70;;;9.43;;
15412;SDS011;7805;49.554;7.632;2023-04-25T06:52:20;10.13;;;9.13;;
15412;SDS011;7805;49.554;7.632;2023-04-25T06:54:46;9.93;;;8.87;;
15412;SDS011;7805;49.554;7.632;2023-04-25T06:57:11;10.67;;;9.57;;
15412;SDS011;7805;49.554;7.632;2023-04-25T06:59:37;10.17;;;8.93;;
15412;SDS011;7805;49.554;7.632;2023-04-25T07:02:02;10.13;;;9.20;;
15412;SDS011;7805;49.554;7.632;2023-04-25T07:04:28;12.33;;;10.10;;
15412;SDS011;7805;49.554;7.632;2023-04-25T07:06:55;11.23;;;9.43;;
15412;SDS011;7805;49.554;7.632;2023-04-25T07:09:21;11.53;;;10.33;;
15412;SDS011;7805;49.554;7.632;2023-04-25T07:11:46;10.43;;;9.43;;
15412;SDS011;7805;49.554;7.632;2023-04-25T07:14:12;11.43;;;10.33;;
15412;SDS011;7805;49.554;7.632;2023-04-25T07:16:38;12.97;;;11.77;;
15412;SDS011;7805;49.554;7.632;2023-04-25T07:19:03;11.97;;;10.80;;
15412;SDS011;7805;49.554;7.632;2023-04-25T07:21:29;10.23;;;8.70;;
15412;SDS011;7805;49.554;7.632;2023-04-25T07:23:55;10.83;;;9.70;;
15412;SDS011;7805;49.554;7.632;2023-04-25T07:26:21;9.60;;;8.60;;
15412;SDS011;7805;49.554;7.632;2023-04-25T07:28:47;11.17;;;8.37;;
15412;SDS011;7805;49.554;7.632;2023-04-25T07:31:15;12.63;;;10.03;;
15412;SDS011;7805;49.554;7.632;2023-04-25T07:33:43;11.07;;;9.10;;
15412;SDS011;7805;49.554;7.632;2023-04-25T07:36:11;11.07;;;9.60;;
15412;SDS011;7805;49.554;7.632;2023-04-25T07:38:38;12.10;;;9.90;;
15412;SDS011;7805;49.554;7.632;2023-04-25T07:41:03;12.40;;;11.10;;
15412;SDS011;7805;49.554;7.632;2023-04-25T07:43:29;12.50;;;9.13;;
15412;SDS011;7805;49.554;7.632;2023-04-25T07:45:55;10.97;;;8.83;;
15412;SDS011;7805;49.554;7.632;2023-04-25T07:48:21;10.87;;;8.13;;
15412;SDS011;7805;49.554;7.632;2023-04-25T07:50:47;10.93;;;8.03;;
15412;SDS011;7805;49.554;7.632;2023-04-25T07:53:13;13.23;;;8.47;;
15412;SDS011;7805;49.554;7.632;2023-04-25T07:55:38;12.10;;;9.30;;
15412;SDS011;7805;49.554;7.632;2023-04-25T07:58:08;16.63;;;8.97;;
15412;SDS011;7805;49.554;7.632;2023-04-25T08:00:34;13.83;;;9.07;;
15412;SDS011;7805;49.554;7.632;2023-04-25T08:03:00;11.97;;;9.10;;
15412;SDS011;7805;49.554;7.632;2023-04-25T08:05:25;12.30;;;8.63;;
15412;SDS011;7805;49.554;7.632;2023-04-25T08:07:51;12.40;;;9.13;;
15412;SDS011;7805;49.554;7.632;2023-04-25T08:10:17;13.93;;;9.20;;
15412;SDS011;7805;49.554;7.632;2023-04-25T08:12:42;14.53;;;9.40;;
15412;SDS011;7805;49.554;7.632;2023-04-25T08:15:08;15.67;;;9.20;;
15412;SDS011;7805;49.554;7.632;2023-04-25T08:17:34;13.77;;;8.80;;
15412;SDS011;7805;49.554;7.632;2023-04-25T08:20:00;17.33;;;10.13;;
15412;SDS011;7805;49.554;7.632;2023-04-25T08:22:26;14.20;;;9.87;;
15412;SDS011;7805;49.554;7.632;2023-04-25T08:24:51;15.83;;;10.33;;
15412;SDS011;7805;49.554;7.632;2023-04-25T08:27:18;14.67;;;9.77;;
15412;SDS011;7805;49.554;7.632;2023-04-25T08:29:43;14.97;;;9.43;;
15412;SDS011;7805;49.554;7.632;2023-04-25T08:32:09;15.40;;;9.90;;
15412;SDS011;7805;49.554;7.632;2023-04-25T08:34:35;14.97;;;11.13;;
15412;SDS011;7805;49.554;7.632;2023-04-25T08:37:01;16.23;;;10.73;;
15412;SDS011;7805;49.554;7.632;2023-04-25T08:39:29;17.23;;;8.33;;
15412;SDS011;7805;49.554;7.632;2023-04-25T08:41:54;14.00;;;9.63;;
15412;SDS011;7805;49.554;7.632;2023-04-25T08:44:21;18.33;;;10.33;;
15412;SDS011;7805;49.554;7.632;2023-04-25T08:46:48;17.20;;;12.17;;
15412;SDS011;7805;49.554;7.632;2023-04-25T08:49:14;16.13;;;11.63;;
15412;SDS011;7805;49.554;7.632;2023-04-25T08:51:44;16.17;;;11.10;;
15412;SDS011;7805;49.554;7.632;2023-04-25T08:54:15;16.80;;;10.57;;
15412;SDS011;7805;49.554;7.632;2023-04-25T08:56:43;19.30;;;11.30;;
15412;SDS011;7805;49.554;7.632;2023-04-25T08:59:10;14.77;;;10.60;;
15412;SDS011;7805;49.554;7.632;2023-04-25T09:01:37;15.73;;;9.30;;
15412;SDS011;7805;49.554;7.632;2023-04-25T09:04:02;17.73;;;10.37;;
15412;SDS011;7805;49.554;7.632;2023-04-25T09:06:29;15.13;;;10.47;;
15412;SDS011;7805;49.554;7.632;2023-04-25T09:09:00;12.70;;;9.97;;
15412;SDS011;7805;49.554;7.632;2023-04-25T09:11:30;14.10;;;9.27;;
15412;SDS011;7805;49.554;7.632;2023-04-25T09:14:15;15.23;;;8.70;;
15412;SDS011;7805;49.554;7.632;2023-04-25T09:19:24;16.83;;;10.03;;
15412;SDS011;7805;49.554;7.632;2023-04-25T09:21:51;15.80;;;9.20;;
15412;SDS011;7805;49.554;7.632;2023-04-25T09:27:18;12.27;;;8.40;;
15412;SDS011;7805;49.554;7.632;2023-04-25T09:29:45;10.23;;;7.83;;
15412;SDS011;7805;49.554;7.632;2023-04-25T09:34:41;18.07;;;9.20;;
15412;SDS011;7805;49.554;7.632;2023-04-25T09:37:09;16.40;;;8.70;;
15412;SDS011;7805;49.554;7.632;2023-04-25T09:39:36;14.53;;;8.10;;
15412;SDS011;7805;49.554;7.632;2023-04-25T09:42:02;12.73;;;7.23;;
15412;SDS011;7805;49.554;7.632;2023-04-25T09:44:29;12.67;;;7.50;;
15412;SDS011;7805;49.554;7.632;2023-04-25T09:46:54;11.47;;;7.20;;
15412;SDS011;7805;49.554;7.632;2023-04-25T09:49:20;9.80;;;6.27;;
15412;SDS011;7805;49.554;7.632;2023-04-25T09:51:58;11.60;;;6.40;;
15412;SDS011;7805;49.554;7.632;2023-04-25T09:54:25;12.50;;;6.33;;
15412;SDS011;7805;49.554;7.632;2023-04-25T09:56:51;10.23;;;6.57;;
15412;SDS011;7805;49.554;7.632;2023-04-25T09:59:21;13.13;;;6.93;;
15412;SDS011;7805;49.554;7.632;2023-04-25T10:01:48;7.30;;;5.10;;
15412;SDS011;7805;49.554;7.632;2023-04-25T10:04:19;8.80;;;4.97;;
15412;SDS011;7805;49.554;7.632;2023-04-25T10:06:48;7.60;;;4.87;;
15412;SDS011;7805;49.554;7.632;2023-04-25T10:09:15;11.63;;;5.43;;
15412;SDS011;7805;49.554;7.632;2023-04-25T10:11:42;8.80;;;5.23;;
15412;SDS011;7805;49.554;7.632;2023-04-25T10:14:10;10.77;;;5.03;;
15412;SDS011;7805;49.554;7.632;2023-04-25T10:16:37;10.43;;;5.13;;
15412;SDS011;7805;49.554;7.632;2023-04-25T10:19:04;9.70;;;5.40;;
15412;SDS011;7805;49.554;7.632;2023-04-25T10:21:30;6.37;;;4.60;;
15412;SDS011;7805;49.554;7.632;2023-04-25T10:23:57;12.00;;;4.73;;
15412;SDS011;7805;49.554;7.632;2023-04-25T10:26:23;9.70;;;4.83;;
15412;SDS011;7805;49.554;7.632;2023-04-25T10:31:24;6.93;;;4.50;;
15412;SDS011;7805;49.554;7.632;2023-04-25T10:33:50;6.70;;;4.47;;
15412;SDS011;7805;49.554;7.632;2023-04-25T10:36:20;5.70;;;4.00;;
15412;SDS011;7805;49.554;7.632;2023-04-25T10:38:47;6.67;;;4.00;;
15412;SDS011;7805;49.554;7.632;2023-04-25T10:41:17;5.63;;;3.90;;
15412;SDS011;7805;49.554;7.632;2023-04-25T10:43:46;7.27;;;3.97;;
15412;SDS011;7805;49.554;7.632;2023-04-25T10:53:44;7.00;;;4.47;;
15412;SDS011;7805;49.554;7.632;2023-04-25T10:56:11;7.60;;;4.73;;
15412;SDS011;7805;49.554;7.632;2023-04-25T10:58:44;4.47;;;3.60;;
15412;SDS011;7805;49.554;7.632;2023-04-25T11:01:10;7.73;;;5.07;;
15412;SDS011;7805;49.554;7.632;2023-04-25T11:03:39;8.80;;;4.50;;
15412;SDS011;7805;49.554;7.632;2023-04-25T11:06:08;5.57;;;4.77;;
15412;SDS011;7805;49.554;7.632;2023-04-25T11:08:56;10.13;;;4.73;;
15412;SDS011;7805;49.554;7.632;2023-04-25T11:11:25;5.70;;;4.27;;
15412;SDS011;7805;49.554;7.632;2023-04-25T11:13:51;8.10;;;4.90;;
15412;SDS011;7805;49.554;7.632;2023-04-25T11:16:17;8.10;;;4.90;;
15412;SDS011;7805;49.554;7.632;2023-04-25T11:18:43;7.73;;;4.57;;
15412;SDS011;7805;49.554;7.632;2023-04-25T11:21:09;6.50;;;5.00;;
15412;SDS011;7805;49.554;7.632;2023-04-25T11:23:35;7.90;;;4.83;;
15412;SDS011;7805;49.554;7.632;2023-04-25T11:26:01;5.00;;;3.93;;
15412;SDS011;7805;49.554;7.632;2023-04-25T11:28:28;6.57;;;4.10;;
15412;SDS011;7805;49.554;7.632;2023-04-25T11:30:53;6.37;;;5.10;;
15412;SDS011;7805;49.554;7.632;2023-04-25T11:33:25;4.93;;;3.83;;
15412;SDS011;7805;49.554;7.632;2023-04-25T11:35:54;6.97;;;4.33;;
15412;SDS011;7805;49.554;7.632;2023-04-25T11:38:21;5.10;;;3.80;;
15412;SDS011;7805;49.554;7.632;2023-04-25T11:40:51;6.53;;;5.07;;
15412;SDS011;7805;49.554;7.632;2023-04-25T11:43:17;6.07;;;3.53;;
15412;SDS011;7805;49.554;7.632;2023-04-25T11:45:51;4.87;;;3.30;;
15412;SDS011;7805;49.554;7.632;2023-04-25T11:48:17;4.20;;;3.67;;
15412;SDS011;7805;49.554;7.632;2023-04-25T11:50:43;5.63;;;4.13;;
15412;SDS011;7805;49.554;7.632;2023-04-25T11:53:10;4.50;;;3.27;;
15412;SDS011;7805;49.554;7.632;2023-04-25T11:55:36;2.97;;;2.77;;
15412;SDS011;7805;49.554;7.632;2023-04-25T11:58:02;5.27;;;3.43;;
15412;SDS011;7805;49.554;7.632;2023-04-25T12:00:29;5.23;;;3.23;;
15412;SDS011;7805;49.554;7.632;2023-04-25T12:02:55;6.47;;;3.30;;
15412;SDS011;7805;49.554;7.632;2023-04-25T12:05:27;6.17;;;3.10;;
15412;SDS011;7805;49.554;7.632;2023-04-25T12:07:54;6.00;;;3.40;;
15412;SDS011;7805;49.554;7.632;2023-04-25T12:10:20;5.83;;;3.53;;
15412;SDS011;7805;49.554;7.632;2023-04-25T12:12:46;6.63;;;4.10;;
15412;SDS011;7805;49.554;7.632;2023-04-25T12:15:16;3.90;;;3.07;;
15412;SDS011;7805;49.554;7.632;2023-04-25T12:17:46;7.00;;;6.30;;
15412;SDS011;7805;49.554;7.632;2023-04-25T12:20:15;6.10;;;4.07;;
15412;SDS011;7805;49.554;7.632;2023-04-25T12:22:42;4.83;;;3.60;;
15412;SDS011;7805;49.554;7.632;2023-04-25T12:25:12;5.17;;;4.10;;
15412;SDS011;7805;49.554;7.632;2023-04-25T12:28:08;8.80;;;4.57;;
15412;SDS011;7805;49.554;7.632;2023-04-25T12:30:52;9.47;;;6.37;;
15412;SDS011;7805;49.554;7.632;2023-04-25T12:33:17;5.77;;;3.53;;
15412;SDS011;7805;49.554;7.632;2023-04-25T12:35:43;8.67;;;4.77;;
15412;SDS011;7805;49.554;7.632;2023-04-25T12:38:08;6.47;;;4.90;;
15412;SDS011;7805;49.554;7.632;2023-04-25T12:40:34;6.50;;;5.07;;
15412;SDS011;7805;49.554;7.632;2023-04-25T12:43:00;4.73;;;3.90;;
15412;SDS011;7805;49.554;7.632;2023-04-25T12:45:25;3.93;;;3.27;;
15412;SDS011;7805;49.554;7.632;2023-04-25T12:47:51;5.23;;;3.30;;
15412;SDS011;7805;49.554;7.632;2023-04-25T12:50:16;6.20;;;3.00;;
15412;SDS011;7805;49.554;7.632;2023-04-25T12:52:42;4.93;;;3.10;;
15412;SDS011;7805;49.554;7.632;2023-04-25T12:55:08;5.30;;;3.77;;
15412;SDS011;7805;49.554;7.632;2023-04-25T12:57:33;3.97;;;3.33;;
15412;SDS011;7805;49.554;7.632;2023-04-25T12:59:59;6.60;;;4.10;;
15412;SDS011;7805;49.554;7.632;2023-04-25T13:02:25;6.37;;;3.30;;
15412;SDS011;7805;49.554;7.632;2023-04-25T13:04:51;8.37;;;3.90;;
15412;SDS011;7805;49.554;7.632;2023-04-25T13:07:16;5.20;;;3.80;;
15412;SDS011;7805;49.554;7.632;2023-04-25T13:09:42;6.33;;;3.43;;
15412;SDS011;7805;49.554;7.632;2023-04-25T13:12:08;4.43;;;3.27;;
15412;SDS011;7805;49.554;7.632;2023-04-25T13:14:33;7.43;;;3.50;;
15412;SDS011;7805;49.554;7.632;2023-04-25T13:16:59;5.10;;;3.00;;
15412;SDS011;7805;49.554;7.632;2023-04-25T13:19:25;5.53;;;3.20;;
15412;SDS011;7805;49.554;7.632;2023-04-25T13:21:50;4.60;;;3.03;;
15412;SDS011;7805;49.554;7.632;2023-04-25T13:24:16;5.23;;;2.83;;
15412;SDS011;7805;49.554;7.632;2023-04-25T13:26:42;7.03;;;3.10;;
15412;SDS011;7805;49.554;7.632;2023-04-25T13:29:08;5.53;;;3.77;;
15412;SDS011;7805;49.554;7.632;2023-04-25T13:31:33;5.17;;;3.00;;
15412;SDS011;7805;49.554;7.632;2023-04-25T13:33:59;5.70;;;2.50;;
15412;SDS011;7805;49.554;7.632;2023-04-25T13:36:25;4.33;;;3.10;;
15412;SDS011;7805;49.554;7.632;2023-04-25T13:38:50;4.87;;;2.73;;
15412;SDS011;7805;49.554;7.632;2023-04-25T13:41:16;3.73;;;3.20;;
15412;SDS011;7805;49.554;7.632;2023-04-25T13:43:43;7.33;;;3.57;;
15412;SDS011;7805;49.554;7.632;2023-04-25T13:46:11;7.47;;;3.10;;
15412;SDS011;7805;49.554;7.632;2023-04-25T13:48:38;6.10;;;3.17;;
15412;SDS011;7805;49.554;7.632;2023-04-25T13:51:03;7.67;;;3.10;;
15412;SDS011;7805;49.554;7.632;2023-04-25T13:53:29;6.97;;;2.97;;
15412;SDS011;7805;49.554;7.632;2023-04-25T13:55:54;10.47;;;3.60;;
15412;SDS011;7805;49.554;7.632;2023-04-25T13:58:20;7.33;;;2.90;;
15412;SDS011;7805;49.554;7.632;2023-04-25T14:00:46;4.93;;;3.30;;
15412;SDS011;7805;49.554;7.632;2023-04-25T14:03:11;6.30;;;3.20;;
15412;SDS011;7805;49.554;7.632;2023-04-25T14:05:37;7.43;;;4.13;;
15412;SDS011;7805;49.554;7.632;2023-04-25T14:08:03;8.67;;;3.03;;
15412;SDS011;7805;49.554;7.632;2023-04-25T14:10:30;4.63;;;2.97;;
15412;SDS011;7805;49.554;7.632;2023-04-25T14:12:56;7.03;;;3.10;;
15412;SDS011;7805;49.554;7.632;2023-04-25T14:15:21;13.40;;;6.40;;
15412;SDS011;7805;49.554;7.632;2023-04-25T14:17:47;6.33;;;3.37;;
15412;SDS011;7805;49.554;7.632;2023-04-25T14:20:13;5.53;;;2.70;;
15412;SDS011;7805;49.554;7.632;2023-04-25T14:22:38;6.37;;;3.23;;
15412;SDS011;7805;49.554;7.632;2023-04-25T14:25:08;8.43;;;3.07;;
15412;SDS011;7805;49.554;7.632;2023-04-25T14:27:34;6.03;;;2.77;;
15412;SDS011;7805;49.554;7.632;2023-04-25T14:29:59;5.17;;;2.20;;
15412;SDS011;7805;49.554;7.632;2023-04-25T14:32:25;3.23;;;2.17;;
15412;SDS011;7805;49.554;7.632;2023-04-25T14:34:50;9.23;;;2.90;;
15412;SDS011;7805;49.554;7.632;2023-04-25T14:37:16;8.33;;;3.47;;
15412;SDS011;7805;49.554;7.632;2023-04-25T14:39:42;6.97;;;3.10;;
15412;SDS011;7805;49.554;7.632;2023-04-25T14:42:07;5.77;;;2.33;;
15412;SDS011;7805;49.554;7.632;2023-04-25T14:44:33;6.53;;;2.17;;
15412;SDS011;7805;49.554;7.632;2023-04-25T14:46:58;5.60;;;3.00;;
15412;SDS011;7805;49.554;7.632;2023-04-25T14:49:24;4.80;;;2.50;;
15412;SDS011;7805;49.554;7.632;2023-04-25T14:51:49;5.17;;;2.60;;
15412;SDS011;7805;49.554;7.632;2023-04-25T14:54:16;5.87;;;3.20;;
15412;SDS011;7805;49.554;7.632;2023-04-25T14:56:42;8.03;;;5.10;;
15412;SDS011;7805;49.554;7.632;2023-04-25T14:59:07;7.83;;;4.43;;
15412;SDS011;7805;49.554;7.632;2023-04-25T15:01:33;7.03;;;3.10;;
15412;SDS011;7805;49.554;7.632;2023-04-25T15:03:59;10.37;;;5.60;;
15412;SDS011;7805;49.554;7.632;2023-04-25T15:06:25;8.47;;;4.53;;
15412;SDS011;7805;49.554;7.632;2023-04-25T15:08:51;27.80;;;13.60;;